createdAt,value
2023-02-28T00:01:33.338Z,15.77
2023-02-28T00:04:01.849Z,16.37
2023-02-28T00:06:31.438Z,15.53
2023-02-28T00:08:59.509Z,15.60
2023-02-28T00:11:27.915Z,15.40
2023-02-28T00:13:56.361Z,15.97
2023-02-28T00:16:25.035Z,15.37
2023-02-28T00:18:53.282Z,16.53
2023-02-28T00:21:22.154Z,16.53
2023-02-28T00:23:51.563Z,16.30
2023-02-28T00:26:21.796Z,17.83
2023-02-28T00:28:51.256Z,16.33
2023-02-28T00:31:19.468Z,15.53
2023-02-28T00:33:50.012Z,15.63
2023-02-28T00:36:18.226Z,17.43
2023-02-28T00:38:46.319Z,17.13
2023-02-28T00:41:15.847Z,19.77
2023-02-28T00:43:43.986Z,18.53
2023-02-28T00:46:12.840Z,19.07
2023-02-28T00:48:40.917Z,18.90
2023-02-28T00:51:08.952Z,18.97
2023-02-28T00:53:37.119Z,17.53
2023-02-28T00:56:05.709Z,17.07
2023-02-28T00:58:35.168Z,18.33
2023-02-28T01:01:03.256Z,17.90
2023-02-28T01:03:31.526Z,16.40
2023-02-28T01:06:00.323Z,17.13
2023-02-28T01:08:28.906Z,17.03
2023-02-28T01:10:57.493Z,17.30
2023-02-28T01:13:26.446Z,16.40
2023-02-28T01:15:58.142Z,17.97
2023-02-28T01:18:26.759Z,17.57
2023-02-28T01:20:55.170Z,17.43
2023-02-28T01:23:25.206Z,17.83
2023-02-28T01:25:53.877Z,17.73
2023-02-28T01:28:22.149Z,18.27
2023-02-28T01:30:52.337Z,18.13
2023-02-28T01:33:22.049Z,17.50
2023-02-28T01:35:50.222Z,17.53
2023-02-28T01:38:23.096Z,18.20
2023-02-28T01:40:51.998Z,17.83
2023-02-28T01:43:24.769Z,18.57
2023-02-28T01:45:54.824Z,18.70
2023-02-28T01:48:28.969Z,21.67
2023-02-28T01:51:01.326Z,21.10
2023-02-28T01:53:34.574Z,19.87
2023-02-28T01:56:06.037Z,23.13
2023-02-28T01:58:34.454Z,23.37
2023-02-28T02:01:04.037Z,23.90
2023-02-28T02:03:33.559Z,21.90
2023-02-28T02:06:01.614Z,26.50
2023-02-28T02:08:31.674Z,24.37
2023-02-28T02:11:02.098Z,25.83
2023-02-28T02:13:47.736Z,22.67
2023-02-28T02:16:33.310Z,26.47
2023-02-28T02:19:17.293Z,27.13
2023-02-28T02:22:13.489Z,28.13
2023-02-28T02:25:16.239Z,27.77
2023-02-28T02:28:13.835Z,25.90
2023-02-28T02:31:07.493Z,24.97
2023-02-28T02:34:26.051Z,25.50
2023-02-28T02:37:04.874Z,26.90
2023-02-28T02:39:43.018Z,27.40
2023-02-28T02:42:17.885Z,24.77
2023-02-28T02:44:50.735Z,22.53
2023-02-28T02:47:23.026Z,21.93
2023-02-28T02:49:54.789Z,23.07
2023-02-28T02:52:29.908Z,21.73
2023-02-28T02:55:00.334Z,22.60
2023-02-28T02:57:35.154Z,21.77
2023-02-28T03:00:06.223Z,22.27
2023-02-28T03:02:35.457Z,21.30
2023-02-28T03:05:07.776Z,23.03
2023-02-28T03:07:37.425Z,21.67
2023-02-28T03:10:20.858Z,21.80
2023-02-28T03:13:06.213Z,21.30
2023-02-28T03:15:47.661Z,23.27
2023-02-28T03:18:25.592Z,23.40
2023-02-28T03:21:02.501Z,23.40
2023-02-28T03:23:40.576Z,23.67
2023-02-28T03:26:18.529Z,23.90
2023-02-28T03:28:55.755Z,24.60
2023-02-28T03:31:29.778Z,24.60
2023-02-28T03:34:03.913Z,24.40
2023-02-28T03:36:42.837Z,24.73
2023-02-28T03:39:16.367Z,24.50
2023-02-28T03:41:50.683Z,25.40
2023-02-28T03:44:24.056Z,24.20
2023-02-28T03:47:02.809Z,26.70
2023-02-28T03:49:35.376Z,25.17
2023-02-28T03:52:06.119Z,24.53
2023-02-28T03:54:39.826Z,25.00
2023-02-28T03:57:18.209Z,25.90
2023-02-28T03:59:50.822Z,26.33
2023-02-28T04:02:19.611Z,25.37
2023-02-28T04:04:49.418Z,24.57
2023-02-28T04:07:18.176Z,26.63
2023-02-28T04:09:47.708Z,26.10
2023-02-28T04:12:15.788Z,26.40
2023-02-28T04:14:43.925Z,26.27
2023-02-28T04:17:12.070Z,26.43
2023-02-28T04:19:40.197Z,26.77
2023-02-28T04:22:08.347Z,26.13
2023-02-28T04:24:36.572Z,26.07
2023-02-28T04:27:06.022Z,26.53
2023-02-28T04:29:34.502Z,26.27
2023-02-28T04:32:04.027Z,26.70
2023-02-28T04:34:34.061Z,27.17
2023-02-28T04:37:12.939Z,28.00
2023-02-28T04:39:42.307Z,26.57
2023-02-28T04:42:12.622Z,25.50
2023-02-28T04:44:40.660Z,25.83
2023-02-28T04:47:08.822Z,26.07
2023-02-28T04:49:36.876Z,25.70
2023-02-28T04:52:04.920Z,26.37
2023-02-28T04:54:32.973Z,27.30
2023-02-28T04:57:02.574Z,27.07
2023-02-28T04:59:31.997Z,28.20
2023-02-28T05:02:00.049Z,27.47
2023-02-28T05:04:28.313Z,27.73
2023-02-28T05:06:56.422Z,28.17
2023-02-28T05:09:24.546Z,28.63
2023-02-28T05:11:52.612Z,28.10
2023-02-28T05:14:20.698Z,28.47
2023-02-28T05:16:50.104Z,28.30
2023-02-28T05:19:18.283Z,28.43
2023-02-28T05:21:53.234Z,28.30
2023-02-28T05:24:23.825Z,28.20
2023-02-28T05:26:53.881Z,27.67
2023-02-28T05:29:22.024Z,27.53
2023-02-28T05:31:51.835Z,27.97
2023-02-28T05:34:20.332Z,27.57
2023-02-28T05:36:48.421Z,28.00
2023-02-28T05:39:16.510Z,27.93
2023-02-28T05:41:45.702Z,26.87
2023-02-28T05:44:13.808Z,27.43
2023-02-28T05:46:41.911Z,27.43
2023-02-28T05:49:11.371Z,26.57
2023-02-28T05:51:41.018Z,28.10
2023-02-28T05:54:09.763Z,26.93
2023-02-28T05:56:40.132Z,26.50
2023-02-28T05:59:08.533Z,27.27
2023-02-28T06:01:38.645Z,27.37
2023-02-28T06:04:14.315Z,26.23
2023-02-28T06:06:49.713Z,26.87
2023-02-28T06:09:17.865Z,27.57
2023-02-28T06:11:46.168Z,28.37
2023-02-28T06:14:17.882Z,26.83
2023-02-28T06:16:46.482Z,29.67
2023-02-28T06:19:16.110Z,28.67
2023-02-28T06:21:44.833Z,29.10
2023-02-28T06:24:14.255Z,30.37
2023-02-28T06:26:42.392Z,30.17
2023-02-28T06:29:10.455Z,30.47
2023-02-28T06:31:39.463Z,30.27
2023-02-28T06:34:07.572Z,30.87
2023-02-28T06:36:35.759Z,31.43
2023-02-28T06:39:03.873Z,32.30
2023-02-28T06:41:53.550Z,33.90
2023-02-28T06:44:24.212Z,33.30
2023-02-28T06:46:52.329Z,33.07
2023-02-28T06:49:20.480Z,33.47
2023-02-28T06:51:48.502Z,32.50
2023-02-28T06:54:16.598Z,32.03
2023-02-28T06:56:46.063Z,31.60
2023-02-28T06:59:14.176Z,31.43
2023-02-28T07:01:42.733Z,32.00
2023-02-28T07:04:11.179Z,31.93
2023-02-28T07:06:39.233Z,30.87
2023-02-28T07:09:10.406Z,32.37
2023-02-28T07:11:38.530Z,30.20
2023-02-28T07:14:08.017Z,29.87
2023-02-28T07:16:36.167Z,29.37
2023-02-28T07:19:04.294Z,29.17
2023-02-28T07:21:32.585Z,29.93
2023-02-28T07:24:00.692Z,29.90
2023-02-28T07:26:28.956Z,28.47
2023-02-28T07:28:56.977Z,27.13
2023-02-28T07:31:26.494Z,25.90
2023-02-28T07:33:55.014Z,24.67
2023-02-28T07:36:23.217Z,24.90
2023-02-28T07:38:51.929Z,23.87
2023-02-28T07:41:21.573Z,23.53
2023-02-28T07:43:49.972Z,23.73
2023-02-28T07:46:21.362Z,21.87
2023-02-28T07:48:50.909Z,21.30
2023-02-28T07:51:19.286Z,23.70
2023-02-28T07:53:47.474Z,20.93
2023-02-28T07:56:15.483Z,21.93
2023-02-28T07:58:43.664Z,17.93
2023-02-28T08:01:12.898Z,17.13
2023-02-28T08:03:42.067Z,16.70
2023-02-28T08:06:18.701Z,16.03
2023-02-28T08:08:46.901Z,14.90
2023-02-28T08:11:14.942Z,14.73
2023-02-28T08:13:45.014Z,15.33
2023-02-28T08:16:16.518Z,13.30
2023-02-28T08:18:44.703Z,13.40
2023-02-28T08:21:14.175Z,12.87
2023-02-28T08:23:42.360Z,11.83
2023-02-28T08:26:10.454Z,15.27
2023-02-28T08:28:38.515Z,10.33
2023-02-28T08:31:10.320Z,10.03
2023-02-28T08:33:40.076Z,9.40
2023-02-28T08:36:09.762Z,9.00
2023-02-28T08:38:39.676Z,8.73
2023-02-28T08:41:10.133Z,8.93
2023-02-28T08:43:38.610Z,8.53
2023-02-28T08:46:07.805Z,8.60
2023-02-28T08:48:38.965Z,9.47
2023-02-28T08:51:12.282Z,8.53
2023-02-28T08:53:42.535Z,7.73
2023-02-28T08:56:13.258Z,8.37
2023-02-28T08:58:42.026Z,7.17
2023-02-28T09:01:13.088Z,7.70
2023-02-28T09:03:42.557Z,7.90
2023-02-28T09:06:12.436Z,11.60
2023-02-28T09:08:42.469Z,8.43
2023-02-28T09:11:10.945Z,7.80
2023-02-28T09:13:41.974Z,7.80
2023-02-28T09:16:13.322Z,8.47
2023-02-28T09:18:42.551Z,8.33
2023-02-28T09:21:14.590Z,8.30
2023-02-28T09:23:45.057Z,7.43
2023-02-28T09:26:16.497Z,7.90
2023-02-28T09:28:44.648Z,7.90
2023-02-28T09:31:15.808Z,7.77
2023-02-28T09:33:44.015Z,7.40
2023-02-28T09:36:12.119Z,8.17
2023-02-28T09:38:40.771Z,8.40
2023-02-28T09:41:16.769Z,9.33
2023-02-28T09:43:48.008Z,9.93
2023-02-28T09:46:33.676Z,9.00
2023-02-28T09:49:04.678Z,9.10
2023-02-28T09:51:42.417Z,9.37
2023-02-28T09:54:19.809Z,9.53
2023-02-28T09:56:54.345Z,10.10
2023-02-28T09:59:38.249Z,11.13
2023-02-28T10:02:15.820Z,9.77
2023-02-28T10:04:52.646Z,9.23
2023-02-28T10:07:39.947Z,9.53
2023-02-28T10:10:22.510Z,9.97
2023-02-28T10:12:54.872Z,10.13
2023-02-28T10:15:27.386Z,10.77
2023-02-28T10:18:08.452Z,10.10
2023-02-28T10:20:39.656Z,10.40
2023-02-28T10:23:15.300Z,10.00
2023-02-28T10:25:49.110Z,8.57
2023-02-28T10:28:20.084Z,8.67
2023-02-28T10:30:50.254Z,8.63
2023-02-28T10:33:23.706Z,9.40
2023-02-28T10:35:51.945Z,9.23
2023-02-28T10:38:22.360Z,9.00
2023-02-28T10:40:50.534Z,8.10
2023-02-28T10:43:25.721Z,8.03
2023-02-28T10:46:04.546Z,7.73
2023-02-28T10:48:36.401Z,7.87
2023-02-28T10:51:05.974Z,8.27
2023-02-28T10:53:57.578Z,8.17
2023-02-28T10:56:28.407Z,8.83
2023-02-28T10:58:59.731Z,8.50
2023-02-28T11:01:39.157Z,8.37
2023-02-28T11:04:22.600Z,7.60
2023-02-28T11:06:59.973Z,9.43
2023-02-28T11:09:32.810Z,9.30
2023-02-28T11:12:01.512Z,9.37
2023-02-28T11:14:33.482Z,9.53
2023-02-28T11:17:17.389Z,8.90
2023-02-28T11:19:49.863Z,11.53
2023-02-28T11:22:22.256Z,9.03
2023-02-28T11:24:55.026Z,9.83
2023-02-28T11:27:48.033Z,8.73
2023-02-28T11:30:36.242Z,9.00
2023-02-28T11:33:23.642Z,8.97
2023-02-28T11:35:53.449Z,8.50
2023-02-28T11:38:21.707Z,10.13
2023-02-28T11:41:01.854Z,8.70
2023-02-28T11:43:43.185Z,8.80
2023-02-28T11:46:23.435Z,8.97
2023-02-28T11:49:00.743Z,9.30
2023-02-28T11:51:34.743Z,8.77
2023-02-28T11:54:26.788Z,8.60
2023-02-28T11:56:59.851Z,7.77
2023-02-28T11:59:49.137Z,8.70
2023-02-28T12:02:30.796Z,9.00
2023-02-28T12:05:20.078Z,8.97
2023-02-28T12:07:57.470Z,8.57
2023-02-28T12:10:28.302Z,8.70
2023-02-28T12:13:10.541Z,8.47
2023-02-28T12:16:19.783Z,8.20
2023-02-28T12:19:05.778Z,8.03
2023-02-28T12:21:47.482Z,7.67
2023-02-28T12:24:39.995Z,7.90
2023-02-28T12:27:12.162Z,7.70
2023-02-28T12:29:49.141Z,8.40
2023-02-28T12:32:22.791Z,7.88
2023-02-28T12:34:57.298Z,8.65
2023-02-28T12:37:30.248Z,8.75
2023-02-28T12:40:06.630Z,7.50
2023-02-28T12:42:40.818Z,8.45
2023-02-28T12:45:14.545Z,7.70
2023-02-28T12:47:46.854Z,7.50
2023-02-28T12:50:17.672Z,7.68
2023-02-28T12:52:55.389Z,8.18
2023-02-28T12:55:29.679Z,8.95
2023-02-28T12:58:10.579Z,8.23
2023-02-28T13:00:47.150Z,7.97
2023-02-28T13:03:52.897Z,8.07
2023-02-28T13:06:43.918Z,10.00
2023-02-28T13:09:13.644Z,8.18
2023-02-28T13:11:44.943Z,8.18
2023-02-28T13:14:25.742Z,9.98
2023-02-28T13:17:00.634Z,9.05
2023-02-28T13:19:31.493Z,8.70
2023-02-28T13:22:03.087Z,9.50
2023-02-28T13:24:50.523Z,9.32
2023-02-28T13:27:34.975Z,7.28
2023-02-28T13:30:03.771Z,8.82
2023-02-28T13:32:40.168Z,8.73
2023-02-28T13:35:17.132Z,8.90
2023-02-28T13:37:50.913Z,8.85
2023-02-28T13:40:38.199Z,8.63
2023-02-28T13:43:10.619Z,8.27
2023-02-28T13:45:40.796Z,10.23
2023-02-28T13:48:20.138Z,8.43
2023-02-28T13:50:49.068Z,8.73
2023-02-28T13:54:00.285Z,8.73
2023-02-28T13:56:41.825Z,8.07
2023-02-28T13:59:24.808Z,11.18
2023-02-28T14:02:15.957Z,10.10
2023-02-28T14:05:02.798Z,9.55
2023-02-28T14:07:36.563Z,9.65
2023-02-28T14:10:09.653Z,9.80
2023-02-28T14:13:03.234Z,9.27
2023-02-28T14:15:49.225Z,9.50
2023-02-28T14:18:27.036Z,9.10
2023-02-28T14:21:00.265Z,8.90
2023-02-28T14:23:57.930Z,8.18
2023-02-28T14:26:53.588Z,9.23
2023-02-28T14:29:39.529Z,9.40
2023-02-28T14:32:17.098Z,9.93
2023-02-28T14:34:53.133Z,9.93
2023-02-28T14:37:27.119Z,9.30
2023-02-28T14:39:57.306Z,9.90
2023-02-28T14:42:35.024Z,9.93
2023-02-28T14:45:03.879Z,9.50
2023-02-28T14:47:34.759Z,9.87
2023-02-28T14:50:06.236Z,12.23
2023-02-28T14:52:35.266Z,10.50
2023-02-28T14:55:08.179Z,10.43
2023-02-28T14:57:42.919Z,10.40
2023-02-28T15:00:18.385Z,9.67
2023-02-28T15:02:46.636Z,10.37
2023-02-28T15:05:34.275Z,10.73
2023-02-28T15:08:14.909Z,11.90
2023-02-28T15:10:45.727Z,10.80
2023-02-28T15:13:17.149Z,10.73
2023-02-28T15:16:05.239Z,11.30
2023-02-28T15:18:46.896Z,10.13
2023-02-28T15:21:19.220Z,10.83
2023-02-28T15:23:53.674Z,11.03
2023-02-28T15:26:24.681Z,10.20
2023-02-28T15:28:59.581Z,10.90
2023-02-28T15:31:37.053Z,10.73
2023-02-28T15:34:21.920Z,12.60
2023-02-28T15:36:51.346Z,11.33
2023-02-28T15:39:24.371Z,10.70
2023-02-28T15:41:52.974Z,10.27
2023-02-28T15:44:31.259Z,11.60
2023-02-28T15:47:03.300Z,11.83
2023-02-28T15:49:44.916Z,20.23
2023-02-28T15:52:17.903Z,10.60
2023-02-28T15:54:47.064Z,13.13
2023-02-28T15:57:19.738Z,10.07
2023-02-28T15:59:54.059Z,11.33
2023-02-28T16:02:24.235Z,10.43
2023-02-28T16:05:04.294Z,11.03
2023-02-28T16:07:32.608Z,14.53
2023-02-28T16:10:01.315Z,14.50
2023-02-28T16:12:31.922Z,14.33
2023-02-28T16:15:04.055Z,12.47
2023-02-28T16:17:35.910Z,10.83
2023-02-28T16:20:14.678Z,11.73
2023-02-28T16:22:43.852Z,14.23
2023-02-28T16:25:14.254Z,14.20
2023-02-28T16:27:44.017Z,12.83
2023-02-28T16:30:21.053Z,15.23
2023-02-28T16:32:50.189Z,14.03
2023-02-28T16:35:18.990Z,17.07
2023-02-28T16:37:47.723Z,16.67
2023-02-28T16:40:17.529Z,14.60
2023-02-28T16:42:47.741Z,15.67
2023-02-28T16:45:24.032Z,15.77
2023-02-28T16:47:52.538Z,16.80
2023-02-28T16:50:22.609Z,16.87
2023-02-28T16:52:53.210Z,19.70
2023-02-28T16:55:21.538Z,17.57
2023-02-28T16:57:53.985Z,17.43
2023-02-28T17:00:24.823Z,16.83
2023-02-28T17:02:53.201Z,17.37
2023-02-28T17:05:21.822Z,19.77
2023-02-28T17:07:50.720Z,18.73
2023-02-28T17:10:21.602Z,19.73
2023-02-28T17:12:50.175Z,23.37
2023-02-28T17:15:20.676Z,20.00
2023-02-28T17:17:51.185Z,21.83
2023-02-28T17:20:23.652Z,27.40
2023-02-28T17:22:52.405Z,23.60
2023-02-28T17:25:20.806Z,29.50
2023-02-28T17:27:49.607Z,23.87
2023-02-28T17:30:19.751Z,26.90
2023-02-28T17:32:48.212Z,25.70
2023-02-28T17:35:18.178Z,28.30
2023-02-28T17:37:46.472Z,25.07
2023-02-28T17:40:16.700Z,25.47
2023-02-28T17:42:45.252Z,26.53
2023-02-28T17:45:14.258Z,26.37
2023-02-28T17:47:44.130Z,25.47
2023-02-28T17:50:17.028Z,26.00
2023-02-28T17:52:47.329Z,27.87
2023-02-28T17:55:15.983Z,26.90
2023-02-28T17:57:44.227Z,26.13
2023-02-28T18:00:14.821Z,28.33
2023-02-28T18:02:44.051Z,29.00
2023-02-28T18:05:12.773Z,33.20
2023-02-28T18:07:41.755Z,35.57
2023-02-28T18:10:16.231Z,34.40
2023-02-28T18:12:45.037Z,33.83
2023-02-28T18:15:13.210Z,34.63
2023-02-28T18:17:41.497Z,36.53
2023-02-28T18:20:11.914Z,31.27
2023-02-28T18:22:40.496Z,31.67
2023-02-28T18:25:14.703Z,32.67
2023-02-28T18:27:54.155Z,38.10
2023-02-28T18:30:23.250Z,35.93
2023-02-28T18:32:51.703Z,42.97
2023-02-28T18:35:34.888Z,35.70
2023-02-28T18:38:05.636Z,42.03
2023-02-28T18:40:35.252Z,55.83
2023-02-28T18:43:03.660Z,55.40
2023-02-28T18:45:32.319Z,57.80
2023-02-28T18:48:00.516Z,56.57
2023-02-28T18:50:29.653Z,49.37
2023-02-28T18:52:59.277Z,46.63
2023-02-28T18:55:27.980Z,46.03
2023-02-28T18:57:57.561Z,37.27
2023-02-28T19:00:26.048Z,35.50
2023-02-28T19:02:54.212Z,33.57
2023-02-28T19:05:22.659Z,34.07
2023-02-28T19:07:51.637Z,35.63
2023-02-28T19:10:19.979Z,36.40
2023-02-28T19:12:49.294Z,34.13
2023-02-28T19:15:19.031Z,34.70
2023-02-28T19:17:47.363Z,34.63
2023-02-28T19:20:15.554Z,35.87
2023-02-28T19:22:44.316Z,36.67
2023-02-28T19:25:12.760Z,35.00
2023-02-28T19:27:40.959Z,34.23
2023-02-28T19:30:10.926Z,37.43
2023-02-28T19:32:40.505Z,40.73
2023-02-28T19:35:09.438Z,41.87
2023-02-28T19:37:39.967Z,39.20
2023-02-28T19:40:09.990Z,40.20
2023-02-28T19:42:38.586Z,43.30
2023-02-28T19:45:10.202Z,44.77
2023-02-28T19:47:41.736Z,48.47
2023-02-28T19:50:12.341Z,47.83
2023-02-28T19:55:14.088Z,42.93
2023-02-28T19:57:42.132Z,45.47
2023-02-28T20:00:12.359Z,46.50
2023-02-28T20:02:43.940Z,49.60
2023-02-28T20:05:13.449Z,53.57
2023-02-28T20:07:41.480Z,51.13
2023-02-28T20:10:11.004Z,48.17
2023-02-28T20:12:39.150Z,55.00
2023-02-28T20:15:08.570Z,60.57
2023-02-28T20:17:36.767Z,63.43
2023-02-28T20:20:05.561Z,69.00
2023-02-28T20:22:38.264Z,73.63
2023-02-28T20:25:08.112Z,70.97
2023-02-28T20:27:36.391Z,56.83
2023-02-28T20:30:05.798Z,61.77
2023-02-28T20:32:34.006Z,56.43
2023-02-28T20:35:02.119Z,59.03
2023-02-28T20:37:30.316Z,57.10
2023-02-28T20:40:00.079Z,52.13
2023-02-28T20:42:28.185Z,50.20
2023-02-28T20:44:56.219Z,50.90
2023-02-28T20:47:24.271Z,43.17
2023-02-28T20:49:52.369Z,48.60
2023-02-28T20:52:20.480Z,52.57
2023-02-28T20:54:48.559Z,47.53
2023-02-28T20:57:17.946Z,43.73
2023-02-28T20:59:46.102Z,40.13
2023-02-28T21:02:17.688Z,45.20
2023-02-28T21:04:45.952Z,43.77
2023-02-28T21:07:13.961Z,43.37
2023-02-28T21:09:42.313Z,49.33
2023-02-28T21:12:11.509Z,47.80
2023-02-28T21:14:41.567Z,69.00
2023-02-28T21:17:10.523Z,58.77
2023-02-28T21:19:38.648Z,61.87
2023-02-28T21:22:06.772Z,65.67
2023-02-28T21:24:34.853Z,70.10
2023-02-28T21:27:02.930Z,54.17
2023-02-28T21:29:31.051Z,55.83
2023-02-28T21:32:00.631Z,53.80
2023-02-28T21:34:29.576Z,49.07
2023-02-28T21:36:57.622Z,54.13
2023-02-28T21:39:28.885Z,53.27
2023-02-28T21:42:03.895Z,52.97
2023-02-28T21:44:34.436Z,58.30
2023-02-28T21:47:04.180Z,46.97
2023-02-28T21:49:32.559Z,51.43
2023-02-28T21:52:00.808Z,58.73
2023-02-28T21:54:28.869Z,64.97
2023-02-28T21:56:57.485Z,44.43
2023-02-28T21:59:25.851Z,57.17
2023-02-28T22:01:55.232Z,63.53
2023-02-28T22:04:25.047Z,47.97
2023-02-28T22:06:54.879Z,51.67
2023-02-28T22:09:23.360Z,48.40
2023-02-28T22:11:51.791Z,66.37
2023-02-28T22:14:20.439Z,86.10
2023-02-28T22:16:52.589Z,65.03
2023-02-28T22:19:22.044Z,65.90
2023-02-28T22:21:53.826Z,66.50
2023-02-28T22:24:24.602Z,58.67
2023-02-28T22:26:53.702Z,51.73
2023-02-28T22:29:21.860Z,55.33
2023-02-28T22:31:50.068Z,55.93
2023-02-28T22:34:18.290Z,62.20
2023-02-28T22:36:46.381Z,51.43
2023-02-28T22:39:15.916Z,65.30
2023-02-28T22:41:43.982Z,71.07
2023-02-28T22:44:12.242Z,67.17
2023-02-28T22:46:40.362Z,66.27
2023-02-28T22:49:08.524Z,71.13
2023-02-28T22:51:36.598Z,76.27
2023-02-28T22:54:05.013Z,59.70
2023-02-28T22:56:34.661Z,60.27
2023-02-28T22:59:03.430Z,62.00
2023-02-28T23:01:33.641Z,47.60
2023-02-28T23:04:02.826Z,49.20
2023-02-28T23:06:32.716Z,46.93
2023-02-28T23:09:02.626Z,46.80
2023-02-28T23:11:35.718Z,54.57
2023-02-28T23:14:04.711Z,45.07
2023-02-28T23:16:35.761Z,54.60
2023-02-28T23:19:06.090Z,46.67
2023-02-28T23:21:34.665Z,64.50
2023-02-28T23:24:03.890Z,61.17
2023-02-28T23:26:32.726Z,60.80
2023-02-28T23:29:02.340Z,51.20
2023-02-28T23:31:30.491Z,49.00
2023-02-28T23:33:58.937Z,47.90
2023-02-28T23:36:27.002Z,46.83
2023-02-28T23:38:55.174Z,46.80
2023-02-28T23:41:24.738Z,40.17
2023-02-28T23:43:54.580Z,42.33
2023-02-28T23:46:24.086Z,44.43
2023-02-28T23:48:52.090Z,45.27
2023-02-28T23:51:22.421Z,44.33
2023-02-28T23:53:53.440Z,47.33
2023-02-28T23:56:22.914Z,50.03
2023-02-28T23:58:52.055Z,50.10
